In Rescue
 
Open Full Screen Window  High Contrast Mode
Wind Gusting 22 knots
18
May 19, 2019 11:24 AM CDT
Present Weather: Mist
Weather Information
Wind Direction
  340 °
Wind Speed
  18 kt (21 mph)
Wind Gust
  22 kt (25 mph)
Altimeter
29.62 in
Visibility
4 SM
Temperature
07° C
45° F
Dewpoint
06° C
43° F
Humidity
93%
1hr Rain Fall
00.00 in.
24hr Rain Fall
00.13 in.
Sky Condition
Overcast @ 1,300 ft
MVFR

METAR KTOB 191624Z AUTO 34018G22KT 4SM BR OVC013 07/06 A2962 RMK AO2

FAA Disclaimer: The data displayed is for advisory purposes only and is not to be used for flight planning or operations.